createdAt,value
2018-08-31T00:01:24.164Z,13.59
2018-08-31T00:05:46.678Z,13.56
2018-08-31T00:10:53.619Z,13.46
2018-08-31T00:13:32.060Z,13.33
2018-08-31T00:16:12.253Z,13.32
2018-08-31T00:18:52.337Z,13.36
2018-08-31T00:21:32.481Z,13.41
2018-08-31T00:24:24.414Z,13.41
2018-08-31T00:27:14.979Z,13.42
2018-08-31T00:30:05.747Z,13.42
2018-08-31T00:38:04.337Z,13.49
2018-08-31T00:43:01.995Z,13.42
2018-08-31T00:45:41.783Z,13.46
2018-08-31T00:48:20.322Z,13.53
2018-08-31T00:50:59.198Z,13.61
2018-08-31T00:53:39.081Z,13.65
2018-08-31T00:56:18.827Z,13.65
2018-08-31T00:58:56.980Z,13.66
2018-08-31T01:01:36.210Z,13.69
2018-08-31T01:04:14.400Z,13.74
2018-08-31T01:06:53.024Z,13.77
2018-08-31T01:09:32.022Z,13.79
2018-08-31T01:12:11.535Z,13.82
2018-08-31T01:14:50.423Z,13.84
2018-08-31T01:17:30.880Z,13.85
2018-08-31T01:20:10.023Z,13.85
2018-08-31T01:22:49.058Z,13.83
2018-08-31T01:25:28.564Z,13.80
2018-08-31T01:28:07.547Z,13.80
2018-08-31T01:30:46.098Z,13.74
2018-08-31T01:33:24.803Z,13.69
2018-08-31T01:36:03.781Z,13.65
2018-08-31T01:38:43.845Z,13.63
2018-08-31T01:41:22.377Z,13.60
2018-08-31T01:44:01.935Z,13.59
2018-08-31T01:46:40.280Z,13.56
2018-08-31T01:49:20.319Z,13.47
2018-08-31T01:52:00.144Z,13.44
2018-08-31T01:54:38.820Z,13.42
2018-08-31T01:57:17.861Z,13.42
2018-08-31T01:59:58.184Z,13.42
2018-08-31T02:02:38.700Z,13.43
2018-08-31T02:05:19.038Z,13.43
2018-08-31T02:07:57.822Z,13.45
2018-08-31T02:10:37.213Z,13.46
2018-08-31T02:13:16.120Z,13.49
2018-08-31T02:15:55.844Z,13.51
2018-08-31T02:18:35.117Z,13.55
2018-08-31T02:21:13.002Z,13.58
2018-08-31T02:23:51.976Z,13.58
2018-08-31T02:26:30.882Z,13.57
2018-08-31T02:29:09.884Z,13.55
2018-08-31T02:31:47.803Z,13.51
2018-08-31T02:34:26.322Z,13.50
2018-08-31T02:37:04.884Z,13.51
2018-08-31T02:39:45.480Z,13.50
2018-08-31T02:42:26.596Z,13.49
2018-08-31T02:45:07.040Z,13.48
2018-08-31T02:47:49.619Z,13.50
2018-08-31T02:50:32.769Z,13.49
2018-08-31T02:53:14.700Z,13.49
2018-08-31T02:55:55.781Z,13.47
2018-08-31T02:58:36.198Z,13.44
2018-08-31T03:01:15.702Z,13.41
2018-08-31T03:03:56.103Z,13.40
2018-08-31T03:06:35.062Z,13.37
2018-08-31T03:09:14.322Z,13.36
2018-08-31T03:11:52.662Z,13.37
2018-08-31T03:14:35.538Z,13.36
2018-08-31T03:17:18.161Z,13.33
2018-08-31T03:19:59.702Z,13.32
2018-08-31T03:22:37.964Z,13.32
2018-08-31T03:25:18.019Z,13.33
2018-08-31T03:27:58.425Z,13.32
2018-08-31T03:30:38.182Z,13.29
2018-08-31T03:33:19.765Z,13.25
2018-08-31T03:36:14.659Z,13.21
2018-08-31T03:38:54.896Z,13.19
2018-08-31T03:41:32.727Z,13.20
2018-08-31T03:44:12.524Z,13.24
2018-08-31T03:46:53.925Z,13.27
2018-08-31T03:49:34.582Z,13.28
2018-08-31T03:52:13.118Z,13.28
2018-08-31T03:54:53.655Z,13.25
2018-08-31T03:57:36.216Z,13.23
2018-08-31T04:00:17.279Z,13.22
2018-08-31T04:02:59.476Z,13.19
2018-08-31T04:05:41.806Z,13.16
2018-08-31T04:08:20.148Z,13.13
2018-08-31T04:10:58.940Z,13.12
2018-08-31T04:13:38.638Z,13.11
2018-08-31T04:16:19.119Z,13.14
2018-08-31T04:18:59.043Z,13.11
2018-08-31T04:21:41.159Z,13.09
2018-08-31T04:24:22.078Z,13.08
2018-08-31T04:27:01.382Z,13.04
2018-08-31T04:29:40.634Z,13.00
2018-08-31T04:32:21.822Z,12.99
2018-08-31T04:35:01.507Z,12.98
2018-08-31T04:37:41.641Z,12.99
2018-08-31T04:40:24.004Z,13.00
2018-08-31T04:43:05.541Z,13.00
2018-08-31T04:45:45.319Z,12.99
2018-08-31T04:48:25.580Z,12.96
2018-08-31T04:51:06.361Z,12.94
2018-08-31T04:53:47.401Z,12.94
2018-08-31T04:56:26.658Z,12.92
2018-08-31T04:59:09.759Z,12.93
2018-08-31T05:01:54.906Z,12.98
2018-08-31T05:04:34.040Z,13.01
2018-08-31T05:07:17.418Z,13.05
2018-08-31T05:09:58.217Z,13.10
2018-08-31T05:12:42.822Z,13.15
2018-08-31T05:15:26.774Z,13.21
2018-08-31T05:18:08.340Z,13.25
2018-08-31T05:20:52.824Z,13.29
2018-08-31T05:23:35.619Z,13.33
2018-08-31T05:26:14.902Z,13.37
2018-08-31T05:28:53.778Z,13.39
2018-08-31T05:31:33.258Z,13.42
2018-08-31T05:34:17.724Z,13.47
2018-08-31T05:37:00.602Z,13.50
2018-08-31T05:39:45.134Z,13.53
2018-08-31T05:42:30.642Z,13.58
2018-08-31T05:45:15.019Z,13.65
2018-08-31T05:47:56.779Z,13.74
2018-08-31T05:50:36.640Z,13.82
2018-08-31T05:53:19.563Z,13.88
2018-08-31T05:55:58.260Z,13.96
2018-08-31T05:58:43.698Z,14.06
2018-08-31T06:01:23.159Z,14.14
2018-08-31T06:04:05.580Z,14.20
2018-08-31T06:06:46.545Z,14.30
2018-08-31T06:09:28.218Z,14.39
2018-08-31T06:12:08.598Z,14.48
2018-08-31T06:14:48.825Z,14.54
2018-08-31T06:17:31.021Z,14.60
2018-08-31T06:20:10.721Z,14.68
2018-08-31T06:22:50.118Z,14.77
2018-08-31T06:25:30.256Z,14.84
2018-08-31T06:28:10.520Z,14.88
2018-08-31T06:30:55.280Z,14.95
2018-08-31T06:33:35.881Z,15.04
2018-08-31T06:36:17.620Z,15.14
2018-08-31T06:39:00.671Z,15.23
2018-08-31T06:41:46.215Z,15.32
2018-08-31T06:44:28.500Z,15.42
2018-08-31T06:47:09.307Z,15.49
2018-08-31T06:49:50.465Z,15.57
2018-08-31T06:52:32.876Z,15.64
2018-08-31T06:55:12.517Z,15.72
2018-08-31T06:57:52.678Z,15.81
2018-08-31T07:00:30.305Z,15.88
2018-08-31T07:03:10.637Z,15.96
2018-08-31T07:05:54.119Z,16.02
2018-08-31T07:08:32.858Z,16.08
2018-08-31T07:11:12.762Z,16.16
2018-08-31T07:13:52.082Z,16.21
2018-08-31T07:16:34.040Z,16.27
2018-08-31T07:19:14.403Z,16.32
2018-08-31T07:21:54.882Z,16.39
2018-08-31T07:25:00.848Z,16.45
2018-08-31T07:27:40.396Z,16.50
2018-08-31T07:30:19.377Z,16.59
2018-08-31T07:32:59.939Z,16.69
2018-08-31T07:35:38.045Z,16.80
2018-08-31T07:38:18.461Z,16.95
2018-08-31T07:40:57.004Z,17.08
2018-08-31T07:43:35.461Z,17.23
2018-08-31T07:46:14.145Z,17.38
2018-08-31T07:48:53.400Z,17.55
2018-08-31T07:51:33.120Z,17.72
2018-08-31T07:54:12.443Z,17.88
2018-08-31T07:56:51.979Z,18.05
2018-08-31T07:59:32.022Z,18.22
2018-08-31T08:02:15.255Z,18.37
2018-08-31T08:04:54.684Z,18.53
2018-08-31T08:07:38.341Z,18.70
2018-08-31T08:10:19.339Z,18.84
2018-08-31T08:13:07.816Z,18.94
2018-08-31T08:15:49.918Z,19.05
2018-08-31T08:18:30.626Z,19.17
2018-08-31T08:21:13.130Z,19.31
2018-08-31T08:23:52.582Z,19.45
2018-08-31T08:26:30.497Z,19.57
2018-08-31T08:29:11.721Z,19.66
2018-08-31T08:31:52.426Z,19.77
2018-08-31T08:34:36.059Z,19.84
2018-08-31T08:37:17.783Z,19.90
2018-08-31T08:39:58.545Z,19.92
2018-08-31T08:42:39.624Z,19.88
2018-08-31T08:45:18.942Z,19.91
2018-08-31T08:47:59.567Z,19.96
2018-08-31T08:50:39.601Z,20.01
2018-08-31T08:53:19.746Z,20.06
2018-08-31T08:56:03.006Z,20.09
2018-08-31T08:58:46.322Z,20.12
2018-08-31T09:01:30.709Z,20.16
2018-08-31T09:04:10.980Z,20.20
2018-08-31T09:06:51.945Z,20.26
2018-08-31T09:09:35.360Z,20.30
2018-08-31T09:12:17.008Z,20.31
2018-08-31T09:14:56.185Z,20.31
2018-08-31T09:17:36.940Z,20.32
2018-08-31T09:20:20.867Z,20.34
2018-08-31T09:23:00.441Z,20.38
2018-08-31T09:25:44.718Z,20.42
2018-08-31T09:28:25.840Z,20.49
2018-08-31T09:31:05.302Z,20.54
2018-08-31T09:33:45.360Z,20.61
2018-08-31T09:36:27.383Z,20.73
2018-08-31T09:39:05.718Z,20.82
2018-08-31T09:41:47.402Z,20.90
2018-08-31T09:44:26.584Z,20.98
2018-08-31T09:47:06.602Z,21.13
2018-08-31T09:49:44.886Z,21.26
2018-08-31T09:52:26.841Z,21.34
2018-08-31T09:55:06.678Z,21.42
2018-08-31T09:57:54.480Z,21.44
2018-08-31T10:00:35.881Z,21.40
2018-08-31T10:03:20.523Z,21.35
2018-08-31T10:06:05.098Z,21.33
2018-08-31T10:08:44.641Z,21.28
2018-08-31T10:11:24.586Z,21.22
2018-08-31T10:14:06.228Z,21.20
2018-08-31T10:16:47.477Z,21.20
2018-08-31T10:19:30.223Z,21.23
2018-08-31T10:22:08.480Z,21.25
2018-08-31T10:24:52.938Z,21.27
2018-08-31T10:27:34.823Z,21.32
2018-08-31T10:30:17.863Z,21.38
2018-08-31T10:32:56.700Z,21.46
2018-08-31T10:35:40.185Z,21.56
2018-08-31T10:38:18.800Z,21.68
2018-08-31T10:41:01.365Z,21.79
2018-08-31T10:43:42.799Z,21.91
2018-08-31T10:46:31.373Z,21.99
2018-08-31T10:49:09.258Z,22.10
2018-08-31T10:51:49.137Z,22.16
2018-08-31T10:54:30.602Z,22.17
2018-08-31T10:57:09.124Z,22.20
2018-08-31T10:59:50.260Z,22.25
2018-08-31T11:02:35.981Z,22.28
2018-08-31T11:05:15.220Z,22.33
2018-08-31T11:07:59.080Z,22.36
2018-08-31T11:10:46.160Z,22.41
2018-08-31T11:13:24.017Z,22.41
2018-08-31T11:16:03.744Z,22.42
2018-08-31T11:18:45.295Z,22.46
2018-08-31T11:21:23.666Z,22.48
2018-08-31T11:24:05.161Z,22.48
2018-08-31T11:26:53.057Z,22.52
2018-08-31T11:29:32.983Z,22.48
2018-08-31T11:32:21.661Z,22.49
2018-08-31T11:35:03.023Z,22.53
2018-08-31T11:37:46.662Z,22.52
2018-08-31T11:40:26.519Z,22.51
2018-08-31T11:43:05.701Z,22.52
2018-08-31T11:45:47.542Z,22.49
2018-08-31T11:48:29.642Z,22.44
2018-08-31T11:51:08.640Z,22.39
2018-08-31T11:53:49.222Z,22.35
2018-08-31T11:56:32.261Z,22.28
2018-08-31T11:59:16.937Z,22.20
2018-08-31T12:01:59.200Z,22.12
2018-08-31T12:04:39.916Z,22.12
2018-08-31T12:07:22.801Z,22.11
2018-08-31T12:10:05.700Z,22.07
2018-08-31T12:12:47.444Z,21.98
2018-08-31T12:15:27.767Z,21.91
2018-08-31T12:18:07.100Z,21.84
2018-08-31T12:20:53.834Z,21.80
2018-08-31T12:23:33.884Z,21.78
2018-08-31T12:26:20.403Z,21.77
2018-08-31T12:28:59.925Z,21.73
2018-08-31T12:31:37.382Z,21.67
2018-08-31T12:34:16.066Z,21.64
2018-08-31T12:36:59.282Z,21.57
2018-08-31T12:39:39.644Z,21.50
2018-08-31T12:42:18.598Z,21.44
2018-08-31T12:45:01.000Z,21.39
2018-08-31T12:47:43.082Z,21.39
2018-08-31T12:50:21.636Z,21.34
2018-08-31T12:52:59.857Z,21.34
2018-08-31T12:55:38.439Z,21.36
2018-08-31T12:58:19.382Z,21.38
2018-08-31T13:00:59.222Z,21.38
2018-08-31T13:03:41.179Z,21.40
2018-08-31T13:06:22.915Z,21.39
2018-08-31T13:09:03.902Z,21.39
2018-08-31T13:11:45.540Z,21.39
2018-08-31T13:14:25.641Z,21.37
2018-08-31T13:17:07.488Z,21.34
2018-08-31T13:19:48.664Z,21.31
2018-08-31T13:22:29.058Z,21.32
2018-08-31T13:25:16.277Z,21.32
2018-08-31T13:27:59.060Z,21.34
2018-08-31T13:30:45.587Z,21.35
2018-08-31T13:33:23.685Z,21.35
2018-08-31T13:36:09.783Z,21.33
2018-08-31T13:38:49.024Z,21.28
2018-08-31T13:41:30.497Z,21.24
2018-08-31T13:44:11.724Z,21.20
2018-08-31T13:46:58.039Z,21.18
2018-08-31T13:49:35.740Z,21.14
2018-08-31T13:52:22.042Z,21.12
2018-08-31T13:55:05.087Z,21.11
2018-08-31T13:57:48.007Z,21.11
2018-08-31T14:00:30.281Z,21.08
2018-08-31T14:03:13.995Z,21.07
2018-08-31T14:05:53.101Z,21.04
2018-08-31T14:08:32.359Z,21.02
2018-08-31T14:11:15.123Z,20.98
2018-08-31T14:13:54.426Z,20.91
2018-08-31T14:16:39.803Z,20.86
2018-08-31T14:19:20.266Z,20.83
2018-08-31T14:22:04.742Z,20.79
2018-08-31T14:24:47.200Z,20.74
2018-08-31T14:27:28.399Z,20.71
2018-08-31T14:30:10.021Z,20.69
2018-08-31T14:32:48.735Z,20.69
2018-08-31T14:35:27.165Z,20.70
2018-08-31T14:38:06.318Z,20.72
2018-08-31T14:40:48.387Z,20.75
2018-08-31T14:43:33.598Z,20.78
2018-08-31T14:46:14.566Z,20.81
2018-08-31T14:48:56.765Z,20.83
2018-08-31T14:51:41.407Z,20.82
2018-08-31T14:54:25.997Z,20.83
2018-08-31T14:57:10.818Z,20.84
2018-08-31T14:59:48.217Z,20.86
2018-08-31T15:02:27.919Z,20.88
2018-08-31T15:05:08.722Z,20.86
2018-08-31T15:07:50.506Z,20.85
2018-08-31T15:10:29.644Z,20.84
2018-08-31T15:13:10.656Z,20.80
2018-08-31T15:15:56.265Z,20.76
2018-08-31T15:18:36.221Z,20.71
2018-08-31T15:21:16.460Z,20.65
2018-08-31T15:23:56.182Z,20.56
2018-08-31T15:26:41.359Z,20.51
2018-08-31T15:29:22.124Z,20.47
2018-08-31T15:32:02.460Z,20.46
2018-08-31T15:34:47.699Z,20.43
2018-08-31T15:37:26.385Z,20.40
2018-08-31T15:40:05.643Z,20.36
2018-08-31T15:42:46.507Z,20.34
2018-08-31T15:45:28.242Z,20.32
2018-08-31T15:48:08.738Z,20.30
2018-08-31T15:50:49.339Z,20.32
2018-08-31T15:53:32.116Z,20.33
2018-08-31T15:56:12.424Z,20.34
2018-08-31T15:58:54.765Z,20.36
2018-08-31T16:01:38.382Z,20.37
2018-08-31T16:04:18.282Z,20.34
2018-08-31T16:06:56.966Z,20.28
2018-08-31T16:09:39.803Z,20.20
2018-08-31T16:12:18.711Z,20.15
2018-08-31T16:15:00.681Z,20.08
2018-08-31T16:17:42.198Z,19.98
2018-08-31T16:20:28.126Z,19.89
2018-08-31T16:23:09.675Z,19.85
2018-08-31T16:25:51.558Z,19.79
2018-08-31T16:28:34.020Z,19.74
2018-08-31T16:31:14.566Z,19.65
2018-08-31T16:33:52.198Z,19.58
2018-08-31T16:36:30.958Z,19.53
2018-08-31T16:39:14.099Z,19.49
2018-08-31T16:41:53.801Z,19.45
2018-08-31T16:44:31.974Z,19.40
2018-08-31T16:47:09.756Z,19.37
2018-08-31T16:49:51.439Z,19.34
2018-08-31T16:52:29.423Z,19.33
2018-08-31T16:55:14.660Z,19.32
2018-08-31T16:57:53.210Z,19.31
2018-08-31T17:00:31.241Z,19.28
2018-08-31T17:03:14.022Z,19.25
2018-08-31T17:05:52.086Z,19.23
2018-08-31T17:08:30.719Z,19.20
2018-08-31T17:11:12.198Z,19.17
2018-08-31T17:13:54.424Z,19.13
2018-08-31T17:16:32.441Z,19.10
2018-08-31T17:19:12.483Z,19.08
2018-08-31T17:21:55.545Z,19.03
2018-08-31T17:24:37.203Z,19.00
2018-08-31T17:27:19.004Z,19.00
2018-08-31T17:30:01.141Z,18.98
2018-08-31T17:32:42.701Z,18.95
2018-08-31T17:35:25.561Z,18.94
2018-08-31T17:38:04.580Z,18.93
2018-08-31T17:40:45.901Z,18.89
2018-08-31T17:43:24.100Z,18.87
2018-08-31T17:46:06.046Z,18.84
2018-08-31T17:48:43.681Z,18.80
2018-08-31T17:51:23.422Z,18.78
2018-08-31T17:54:07.889Z,18.77
2018-08-31T17:56:46.425Z,18.76
2018-08-31T17:59:23.957Z,18.72
2018-08-31T18:02:04.921Z,18.69
2018-08-31T18:04:45.659Z,18.68
2018-08-31T18:07:25.340Z,18.66
2018-08-31T18:10:06.915Z,18.63
2018-08-31T18:12:47.445Z,18.61
2018-08-31T18:15:26.993Z,18.59
2018-08-31T18:18:11.279Z,18.55
2018-08-31T18:20:49.399Z,18.53
2018-08-31T18:23:32.417Z,18.50
2018-08-31T18:26:18.742Z,18.46
2018-08-31T18:28:59.261Z,18.44
2018-08-31T18:31:42.124Z,18.39
2018-08-31T18:34:21.724Z,18.37
2018-08-31T18:37:06.583Z,18.35
2018-08-31T18:39:47.145Z,18.33
2018-08-31T18:42:25.757Z,18.30
2018-08-31T18:45:07.703Z,18.29
2018-08-31T18:47:48.857Z,18.25
2018-08-31T18:50:31.383Z,18.23
2018-08-31T18:53:09.960Z,18.20
2018-08-31T18:55:50.279Z,18.18
2018-08-31T18:58:30.802Z,18.15
2018-08-31T19:01:12.659Z,18.12
2018-08-31T19:03:51.941Z,18.09
2018-08-31T19:06:33.742Z,18.08
2018-08-31T19:09:16.905Z,18.06
2018-08-31T19:11:57.022Z,18.04
2018-08-31T19:14:35.923Z,18.02
2018-08-31T19:17:17.880Z,17.98
2018-08-31T19:19:57.377Z,17.96
2018-08-31T19:22:39.644Z,17.96
2018-08-31T19:25:18.580Z,17.95
2018-08-31T19:27:59.646Z,17.93
2018-08-31T19:30:42.239Z,17.89
2018-08-31T19:33:22.443Z,17.88
2018-08-31T19:36:02.080Z,17.88
2018-08-31T19:38:42.836Z,17.86
2018-08-31T19:41:22.160Z,17.86
2018-08-31T19:44:04.085Z,17.85
2018-08-31T19:46:45.421Z,17.86
2018-08-31T19:49:25.185Z,17.85
2018-08-31T19:52:05.098Z,17.87
2018-08-31T19:54:45.298Z,17.86
2018-08-31T19:57:25.158Z,17.87
2018-08-31T20:00:06.644Z,17.88
2018-08-31T20:02:45.301Z,17.89
2018-08-31T20:05:27.842Z,17.91
2018-08-31T20:08:07.067Z,17.90
2018-08-31T20:10:46.578Z,17.90
2018-08-31T20:13:26.867Z,17.90
2018-08-31T20:16:05.778Z,17.91
2018-08-31T20:18:44.842Z,17.90
2018-08-31T20:21:28.199Z,17.88
2018-08-31T20:24:09.241Z,17.88
2018-08-31T20:26:49.526Z,17.87
2018-08-31T20:29:28.443Z,17.85
2018-08-31T20:32:10.099Z,17.85
2018-08-31T20:34:53.160Z,17.83
2018-08-31T20:37:34.658Z,17.82
2018-08-31T20:40:14.714Z,17.83
2018-08-31T20:42:55.301Z,17.82
2018-08-31T20:45:34.275Z,17.80
2018-08-31T20:48:14.760Z,17.79
2018-08-31T20:50:52.307Z,17.79
2018-08-31T20:53:32.499Z,17.80
2018-08-31T20:56:11.861Z,17.80
2018-08-31T20:58:51.758Z,17.78
2018-08-31T21:01:32.381Z,17.79
2018-08-31T21:04:10.428Z,17.79
2018-08-31T21:06:49.565Z,17.77
2018-08-31T21:09:29.096Z,17.76
2018-08-31T21:12:08.598Z,17.77
2018-08-31T21:14:50.387Z,17.79
2018-08-31T21:17:30.104Z,17.77
2018-08-31T21:20:12.105Z,17.79
2018-08-31T21:22:52.881Z,17.78
2018-08-31T21:25:33.678Z,17.77
2018-08-31T21:28:16.161Z,17.77
2018-08-31T21:31:00.281Z,17.77
2018-08-31T21:33:39.580Z,17.77
2018-08-31T21:36:20.147Z,17.76
2018-08-31T21:38:59.864Z,17.74
2018-08-31T21:41:40.397Z,17.71
2018-08-31T21:44:21.940Z,17.70
2018-08-31T21:47:03.525Z,17.69
2018-08-31T21:49:42.282Z,17.67
2018-08-31T21:52:21.199Z,17.66
2018-08-31T21:55:03.762Z,17.63
2018-08-31T21:57:43.861Z,17.63
2018-08-31T22:00:26.657Z,17.61
2018-08-31T22:03:05.724Z,17.61
2018-08-31T22:05:43.880Z,17.61
2018-08-31T22:08:25.094Z,17.59
2018-08-31T22:11:03.402Z,17.59
2018-08-31T22:13:42.838Z,17.57
2018-08-31T22:16:21.701Z,17.55
2018-08-31T22:19:01.237Z,17.54
2018-08-31T22:21:39.458Z,17.54
2018-08-31T22:24:19.257Z,17.53
2018-08-31T22:26:58.730Z,17.54
2018-08-31T22:29:39.141Z,17.54
2018-08-31T22:32:18.962Z,17.54
2018-08-31T22:34:58.503Z,17.54
2018-08-31T22:37:37.978Z,17.53
2018-08-31T22:40:17.401Z,17.51
2018-08-31T22:42:58.683Z,17.50
2018-08-31T22:45:38.643Z,17.49
2018-08-31T22:48:23.657Z,17.44
2018-08-31T22:51:03.638Z,17.42
2018-08-31T22:53:41.903Z,17.41
2018-08-31T22:56:22.541Z,17.40
2018-08-31T22:59:01.725Z,17.39
2018-08-31T23:01:40.144Z,17.39
2018-08-31T23:04:18.282Z,17.39
2018-08-31T23:06:58.001Z,17.38
2018-08-31T23:09:36.161Z,17.39
2018-08-31T23:12:19.666Z,17.39
2018-08-31T23:14:59.157Z,17.38
2018-08-31T23:17:38.638Z,17.36
2018-08-31T23:20:19.083Z,17.33
2018-08-31T23:23:01.577Z,17.30
2018-08-31T23:25:44.385Z,17.27
2018-08-31T23:28:25.350Z,17.23
2018-08-31T23:31:04.756Z,17.20
2018-08-31T23:33:43.683Z,17.18
2018-08-31T23:36:23.741Z,17.14
2018-08-31T23:39:03.476Z,17.12
2018-08-31T23:41:43.043Z,17.10
2018-08-31T23:44:25.126Z,17.08
2018-08-31T23:47:08.459Z,17.05
2018-08-31T23:49:48.100Z,17.02
2018-08-31T23:52:27.642Z,16.99
2018-08-31T23:55:08.164Z,16.96
2018-08-31T23:57:47.619Z,16.94
